Time;durP1;ratioP1;P1;durP2;ratioP2;P2;SDS_P1;SDS_P2;PMS_P1;PMS_P2;Temp;Humidity;BMP_temperature;BMP_pressure;BME280_temperature;BME280_humidity;BME280_pressure;Samples;Min_cycle;Max_cycle;Signal;HPM_P1;HPM_P2
2020/12/25 00:00:48;;;;;;;22.67;12.50;;;3.90;99.90;;;;;;5027473;28;20033;-60
2020/12/25 00:03:15;;;;;;;24.15;14.00;;;4.00;99.90;;;;;;5012198;28;20061;-62
2020/12/25 00:05:45;;;;;;;23.92;14.95;;;4.00;99.90;;;;;;5023423;28;20037;-61
2020/12/25 00:08:13;;;;;;;20.42;12.60;;;4.00;99.90;;;;;;5014276;28;20100;-61
2020/12/25 00:10:42;;;;;;;15.10;8.35;;;4.10;99.90;;;;;;5013229;28;20037;-61
2020/12/25 00:13:08;;;;;;;15.90;7.15;;;4.00;99.90;;;;;;5011071;28;20030;-61
2020/12/25 00:15:33;;;;;;;11.95;7.80;;;3.80;99.90;;;;;;5011937;28;20029;-59
2020/12/25 00:17:59;;;;;;;12.82;7.22;;;3.70;99.90;;;;;;5017065;28;20024;-61
2020/12/25 00:20:24;;;;;;;15.82;6.35;;;3.70;99.90;;;;;;5012758;28;20080;-61
2020/12/25 00:22:50;;;;;;;10.70;6.20;;;3.60;99.90;;;;;;5014658;28;20082;-60
2020/12/25 00:25:15;;;;;;;9.30;5.30;;;3.60;99.90;;;;;;5010202;28;20041;-60
2020/12/25 00:27:41;;;;;;;9.40;5.40;;;3.50;99.90;;;;;;5010736;28;20034;-59
2020/12/25 00:30:07;;;;;;;8.18;4.97;;;3.40;99.90;;;;;;5010369;28;20036;-60
2020/12/25 00:32:32;;;;;;;8.75;4.20;;;3.40;99.90;;;;;;5012004;28;20030;-60
2020/12/25 00:34:58;;;;;;;6.28;3.95;;;3.40;99.90;;;;;;4992959;28;20050;-61
2020/12/25 00:37:23;;;;;;;5.60;4.13;;;3.40;99.90;;;;;;5024063;28;20084;-61
2020/12/25 00:39:49;;;;;;;11.85;4.13;;;3.40;99.90;;;;;;5012649;28;20394;-60
2020/12/25 00:42:14;;;;;;;9.00;3.80;;;3.40;99.90;;;;;;5024071;28;20025;-58
2020/12/25 00:44:40;;;;;;;6.03;3.72;;;3.40;99.90;;;;;;5032436;28;20025;-60
2020/12/25 00:47:06;;;;;;;6.28;3.63;;;3.30;99.90;;;;;;5032234;28;20060;-60
2020/12/25 00:49:31;;;;;;;7.50;3.83;;;3.30;99.90;;;;;;5019719;28;20491;-60
2020/12/25 00:51:57;;;;;;;9.00;3.80;;;3.30;99.90;;;;;;5026818;28;20099;-60
2020/12/25 00:54:22;;;;;;;8.27;3.70;;;3.20;99.90;;;;;;5031459;28;20051;-61
2020/12/25 00:56:48;;;;;;;6.70;3.53;;;3.20;99.90;;;;;;5023106;28;20689;-61
2020/12/25 00:59:14;;;;;;;6.15;3.83;;;3.20;99.90;;;;;;5031551;28;20017;-61
2020/12/25 01:01:39;;;;;;;6.18;4.15;;;3.20;99.90;;;;;;5022009;28;20490;-59
2020/12/25 01:04:05;;;;;;;5.57;3.72;;;3.20;99.90;;;;;;5016879;28;20029;-60
2020/12/25 01:06:30;;;;;;;6.07;3.50;;;3.20;99.90;;;;;;5012318;28;20080;-60
2020/12/25 01:08:56;;;;;;;6.35;3.85;;;3.30;99.90;;;;;;5013636;28;20032;-60
2020/12/25 01:11:24;;;;;;;5.70;3.78;;;3.30;99.90;;;;;;5017805;28;20033;-61
2020/12/25 01:13:50;;;;;;;10.75;4.50;;;3.20;99.90;;;;;;5013712;28;20034;-61
2020/12/25 01:16:16;;;;;;;5.72;3.80;;;3.30;99.90;;;;;;5031428;28;20028;-59
2020/12/25 01:18:43;;;;;;;6.45;4.22;;;3.30;99.90;;;;;;5026141;28;20029;-60
2020/12/25 01:21:09;;;;;;;6.50;3.75;;;3.30;99.90;;;;;;5036129;28;20499;-61
2020/12/25 01:23:35;;;;;;;6.25;4.05;;;3.30;99.90;;;;;;5031666;28;20029;-60
2020/12/25 01:26:01;;;;;;;10.75;6.00;;;3.30;99.90;;;;;;5029875;28;20036;-60
2020/12/25 01:28:26;;;;;;;9.00;5.00;;;3.30;99.90;;;;;;5035240;28;20030;-60
2020/12/25 01:30:52;;;;;;;9.68;4.30;;;3.30;99.90;;;;;;5026444;28;20049;-60
2020/12/25 01:33:17;;;;;;;6.68;4.70;;;3.30;99.90;;;;;;5032657;28;20521;-58
2020/12/25 01:35:43;;;;;;;7.60;5.22;;;3.30;99.90;;;;;;5015859;28;20532;-61
2020/12/25 01:38:09;;;;;;;8.63;5.80;;;3.30;99.90;;;;;;5025597;28;20034;-60
2020/12/25 01:40:35;;;;;;;7.68;5.65;;;3.30;99.90;;;;;;5032122;28;20048;-60
2020/12/25 01:43:00;;;;;;;11.20;5.40;;;3.30;99.90;;;;;;5026220;28;20021;-61
2020/12/25 01:45:46;;;;;;;10.98;5.53;;;3.30;99.90;;;;;;5033958;28;20028;-61
2020/12/25 01:48:12;;;;;;;10.60;5.60;;;3.30;99.90;;;;;;5029879;28;20044;-58
2020/12/25 01:50:38;;;;;;;11.85;6.43;;;3.30;99.90;;;;;;5026681;28;20033;-60
2020/12/25 01:53:05;;;;;;;9.15;7.05;;;3.20;99.90;;;;;;5041044;28;20027;-61
2020/12/25 01:55:32;;;;;;;11.85;6.70;;;3.20;99.90;;;;;;5027979;28;20438;-61
2020/12/25 01:58:00;;;;;;;11.77;8.20;;;3.20;99.90;;;;;;5036278;28;20021;-61
2020/12/25 02:00:28;;;;;;;12.40;8.45;;;3.20;99.90;;;;;;5029429;28;20032;-60
2020/12/25 02:02:53;;;;;;;12.30;9.15;;;3.20;99.90;;;;;;5022223;28;20448;-60
2020/12/25 02:05:20;;;;;;;13.70;9.90;;;3.20;99.90;;;;;;5035217;28;20063;-60
2020/12/25 02:07:46;;;;;;;16.10;10.32;;;3.30;99.90;;;;;;5024488;28;20042;-60
2020/12/25 02:10:12;;;;;;;19.45;10.32;;;3.20;99.90;;;;;;5039150;28;20078;-60
2020/12/25 02:12:38;;;;;;;18.10;10.93;;;3.30;99.90;;;;;;5026623;28;20060;-58
2020/12/25 02:15:06;;;;;;;18.75;10.43;;;3.30;99.90;;;;;;5027606;28;20040;-61
2020/12/25 02:17:32;;;;;;;17.20;9.88;;;3.20;99.90;;;;;;5033382;28;20056;-60
2020/12/25 02:19:57;;;;;;;19.15;11.23;;;3.30;99.90;;;;;;5034609;28;20025;-61
2020/12/25 02:22:23;;;;;;;16.77;9.93;;;3.30;99.90;;;;;;5018404;28;20030;-60
2020/12/25 02:24:48;;;;;;;19.80;9.82;;;3.30;99.90;;;;;;5019712;28;20069;-59
2020/12/25 02:27:14;;;;;;;15.00;9.23;;;3.30;99.90;;;;;;5033463;28;20032;-59
2020/12/25 02:29:40;;;;;;;13.45;7.80;;;3.30;99.90;;;;;;5025670;28;20030;-59
2020/12/25 02:32:05;;;;;;;11.10;7.40;;;3.20;99.90;;;;;;5028434;28;20037;-61
2020/12/25 02:34:31;;;;;;;9.73;5.25;;;3.20;99.90;;;;;;5003673;28;20533;-61
2020/12/25 02:36:56;;;;;;;11.98;6.00;;;3.30;99.90;;;;;;5018092;28;20096;-61
2020/12/25 02:39:22;;;;;;;11.98;7.00;;;3.30;99.90;;;;;;5017503;28;20125;-61
2020/12/25 02:41:47;;;;;;;14.68;6.15;;;3.20;99.90;;;;;;5033870;28;20037;-59
2020/12/25 02:44:13;;;;;;;11.73;6.85;;;3.10;99.90;;;;;;5039275;28;20124;-60
2020/12/25 02:46:38;;;;;;;11.00;6.22;;;3.10;99.90;;;;;;5036291;28;20036;-61
2020/12/25 02:49:04;;;;;;;12.43;6.43;;;3.00;99.90;;;;;;5015260;28;20058;-60
2020/12/25 02:51:30;;;;;;;8.73;4.95;;;3.00;99.90;;;;;;5014885;28;20041;-60
2020/12/25 02:53:56;;;;;;;9.38;4.72;;;3.00;99.90;;;;;;5002918;28;20029;-58
2020/12/25 02:56:21;;;;;;;9.68;4.55;;;2.90;99.90;;;;;;5016222;28;20091;-59
2020/12/25 02:58:47;;;;;;;9.60;4.18;;;2.90;99.90;;;;;;5029900;28;20034;-61
2020/12/25 03:01:14;;;;;;;8.60;4.22;;;2.90;99.90;;;;;;5015701;28;20100;-60
2020/12/25 03:03:40;;;;;;;10.00;4.20;;;2.90;99.90;;;;;;5017449;28;20033;-60
2020/12/25 03:06:06;;;;;;;6.60;3.90;;;2.90;99.90;;;;;;5017179;28;20021;-60
2020/12/25 03:08:33;;;;;;;11.95;3.90;;;2.90;99.90;;;;;;5017934;28;20022;-60
2020/12/25 03:10:59;;;;;;;7.30;3.80;;;2.90;99.90;;;;;;5029780;28;20099;-60
2020/12/25 03:13:25;;;;;;;8.32;3.42;;;2.90;99.90;;;;;;5027169;28;20446;-61
2020/12/25 03:15:50;;;;;;;6.15;3.85;;;2.90;99.90;;;;;;5026719;28;20037;-59
2020/12/25 03:18:16;;;;;;;10.43;3.78;;;2.90;99.90;;;;;;5023398;28;20026;-61
2020/12/25 03:20:41;;;;;;;8.55;4.13;;;2.90;99.90;;;;;;5031079;28;20026;-61
2020/12/25 03:23:07;;;;;;;10.48;4.20;;;2.80;99.90;;;;;;5015723;28;20025;-60
2020/12/25 03:25:32;;;;;;;7.60;3.80;;;2.80;99.90;;;;;;5029886;28;20041;-60
2020/12/25 03:27:58;;;;;;;9.63;4.88;;;2.70;99.90;;;;;;5035544;28;20116;-59
2020/12/25 03:30:23;;;;;;;10.85;4.25;;;2.70;99.90;;;;;;5021588;28;20554;-60
2020/12/25 03:32:49;;;;;;;11.52;4.20;;;2.60;99.90;;;;;;5017424;28;20110;-60
2020/12/25 03:35:15;;;;;;;10.30;3.83;;;2.60;99.90;;;;;;4997946;28;20756;-59
2020/12/25 03:37:41;;;;;;;9.57;4.35;;;2.70;99.90;;;;;;5018743;28;20040;-61
2020/12/25 03:40:06;;;;;;;9.95;4.43;;;2.60;99.90;;;;;;5028722;28;20407;-60
2020/12/25 03:42:32;;;;;;;8.88;4.22;;;2.60;99.90;;;;;;5020933;28;20549;-61
2020/12/25 03:44:58;;;;;;;8.45;4.45;;;2.60;99.90;;;;;;5026084;28;20033;-61
2020/12/25 03:47:25;;;;;;;15.70;4.05;;;2.60;99.90;;;;;;5024271;28;20108;-61
2020/12/25 03:49:54;;;;;;;6.53;4.32;;;2.60;99.90;;;;;;5026954;28;20040;-61
2020/12/25 03:52:22;;;;;;;8.73;5.25;;;2.60;99.90;;;;;;5014345;28;20038;-60
2020/12/25 03:54:48;;;;;;;12.10;4.88;;;2.50;99.90;;;;;;5023432;28;20030;-60
2020/12/25 03:57:14;;;;;;;10.75;4.07;;;2.50;99.90;;;;;;5024463;28;20034;-61
2020/12/25 03:59:40;;;;;;;12.20;4.47;;;2.60;99.90;;;;;;5033612;28;20014;-61
2020/12/25 04:02:06;;;;;;;9.63;3.53;;;2.60;99.90;;;;;;5025984;28;20041;-59
2020/12/25 04:04:31;;;;;;;7.80;3.67;;;2.60;99.90;;;;;;5031633;28;20101;-62
2020/12/25 04:06:57;;;;;;;8.02;3.60;;;2.60;99.90;;;;;;5024555;28;20537;-61
2020/12/25 04:09:22;;;;;;;8.40;2.80;;;2.60;99.90;;;;;;5033954;28;20027;-60
2020/12/25 04:11:49;;;;;;;5.20;2.80;;;2.70;99.90;;;;;;5019940;28;20033;-59
2020/12/25 04:14:16;;;;;;;7.60;3.10;;;2.70;99.90;;;;;;5029125;28;20017;-61
2020/12/25 04:16:42;;;;;;;9.43;3.28;;;2.70;99.90;;;;;;5018653;28;20479;-61
2020/12/25 04:19:07;;;;;;;4.78;3.15;;;2.60;99.90;;;;;;5025280;28;20029;-60
2020/12/25 04:21:33;;;;;;;7.32;3.10;;;2.60;99.90;;;;;;5034181;28;20080;-61
2020/12/25 04:23:58;;;;;;;11.35;3.33;;;2.60;99.90;;;;;;5022102;28;20025;-60
2020/12/25 04:26:24;;;;;;;14.05;2.78;;;2.60;99.90;;;;;;5034129;28;20559;-61
2020/12/25 04:28:49;;;;;;;7.78;2.53;;;2.60;99.90;;;;;;5033237;28;20033;-61
2020/12/25 04:31:15;;;;;;;13.48;3.42;;;2.50;99.90;;;;;;5027471;28;20038;-61
2020/12/25 04:33:41;;;;;;;9.60;2.30;;;2.60;99.90;;;;;;5021786;28;20056;-61
2020/12/25 04:36:06;;;;;;;6.30;2.58;;;2.60;99.90;;;;;;5017691;28;20554;-61
2020/12/25 04:38:32;;;;;;;6.57;2.55;;;2.60;99.90;;;;;;5020807;28;20736;-61
2020/12/25 04:40:58;;;;;;;8.52;2.22;;;2.60;99.90;;;;;;5023213;28;20694;-60
2020/12/25 04:43:25;;;;;;;7.60;2.20;;;2.60;99.90;;;;;;5032470;28;20048;-61
2020/12/25 04:45:54;;;;;;;6.00;2.72;;;2.60;99.90;;;;;;5033251;28;20695;-60
2020/12/25 04:48:21;;;;;;;9.85;3.40;;;2.60;99.90;;;;;;5038713;28;20029;-59
2020/12/25 04:50:47;;;;;;;8.32;2.20;;;2.60;99.90;;;;;;5034624;28;20671;-61
2020/12/25 04:53:13;;;;;;;7.97;2.75;;;2.60;99.90;;;;;;5026974;28;20025;-61
2020/12/25 04:55:38;;;;;;;15.93;2.83;;;2.60;99.90;;;;;;5039528;28;20678;-61
2020/12/25 04:58:04;;;;;;;8.02;1.80;;;2.60;99.90;;;;;;5032859;28;20811;-61
2020/12/25 05:00:30;;;;;;;9.88;2.30;;;2.60;99.90;;;;;;5035026;28;20606;-61
2020/12/25 05:02:56;;;;;;;9.40;2.08;;;2.60;99.90;;;;;;5017079;28;20017;-61
2020/12/25 05:05:30;;;;;;;4.43;2.10;;;2.60;99.90;;;;;;5028985;28;20075;-61
2020/12/25 05:07:57;;;;;;;7.93;2.25;;;2.50;99.90;;;;;;5023904;28;20021;-59
2020/12/25 05:10:23;;;;;;;6.10;1.83;;;2.50;99.90;;;;;;5041197;28;20056;-60
2020/12/25 05:12:49;;;;;;;8.32;1.92;;;2.40;99.90;;;;;;5024148;28;20034;-60
2020/12/25 05:15:17;;;;;;;5.68;1.90;;;2.40;99.90;;;;;;5031507;28;20514;-60
2020/12/25 05:17:43;;;;;;;13.20;2.20;;;2.30;99.90;;;;;;5022357;28;20029;-60
2020/12/25 05:20:10;;;;;;;3.42;1.58;;;2.30;99.90;;;;;;5041131;28;20024;-60
2020/12/25 05:22:36;;;;;;;12.95;2.17;;;2.20;99.90;;;;;;5029146;28;20040;-59
2020/12/25 05:25:04;;;;;;;9.00;2.10;;;2.20;99.90;;;;;;5037611;28;20028;-60
2020/12/25 05:27:30;;;;;;;6.82;2.15;;;2.10;99.90;;;;;;5029731;28;20030;-59
2020/12/25 05:30:00;;;;;;;7.80;2.30;;;2.00;99.90;;;;;;5022536;28;20030;-59
2020/12/25 05:32:28;;;;;;;14.52;1.92;;;2.00;99.90;;;;;;5028971;28;20037;-59
2020/12/25 05:34:56;;;;;;;8.93;2.15;;;2.00;99.90;;;;;;5020579;28;20052;-60
2020/12/25 05:37:22;;;;;;;4.70;1.70;;;2.00;99.90;;;;;;5018682;28;20029;-60
2020/12/25 05:39:48;;;;;;;8.73;2.17;;;2.00;99.90;;;;;;5028351;28;20029;-61
2020/12/25 05:42:14;;;;;;;6.22;2.35;;;2.00;99.90;;;;;;5030796;28;20059;-62
2020/12/25 05:44:47;;;;;;;6.97;2.50;;;2.00;99.90;;;;;;5031569;28;20033;-61
2020/12/25 05:47:14;;;;;;;3.40;1.42;;;1.90;99.90;;;;;;5015351;28;20080;-61
2020/12/25 05:49:40;;;;;;;12.90;2.45;;;1.90;99.90;;;;;;5023364;28;20030;-61
2020/12/25 05:52:06;;;;;;;4.22;1.70;;;1.80;99.90;;;;;;5017970;28;20029;-61
2020/12/25 05:54:33;;;;;;;9.15;2.10;;;1.70;99.90;;;;;;5024397;28;20455;-61
2020/12/25 05:56:59;;;;;;;9.63;2.10;;;1.60;99.90;;;;;;5030611;28;20087;-61
2020/12/25 05:59:30;;;;;;;5.07;1.92;;;1.50;99.90;;;;;;5029071;28;20030;-61
2020/12/25 06:02:04;;;;;;;9.35;1.60;;;1.50;99.90;;;;;;5030040;28;20037;-61
2020/12/25 06:04:32;;;;;;;6.28;2.13;;;1.40;99.90;;;;;;5035728;28;20059;-61
2020/12/25 06:06:58;;;;;;;11.90;2.17;;;1.30;99.90;;;;;;5026107;28;20024;-60
2020/12/25 06:09:32;;;;;;;11.50;2.83;;;1.30;99.90;;;;;;5035121;28;20033;-60
2020/12/25 06:11:59;;;;;;;14.02;4.53;;;1.30;99.90;;;;;;5034287;28;20021;-61
2020/12/25 06:14:25;;;;;;;8.52;2.28;;;1.30;99.90;;;;;;5027548;28;20039;-60
2020/12/25 06:17:01;;;;;;;7.68;1.90;;;1.30;99.90;;;;;;5023488;28;20025;-60
2020/12/25 06:19:39;;;;;;;13.13;2.38;;;1.30;99.90;;;;;;5027317;28;20033;-61
2020/12/25 06:22:08;;;;;;;11.90;2.22;;;1.30;99.90;;;;;;5033078;28;20092;-61
2020/12/25 06:24:36;;;;;;;18.27;2.92;;;1.30;99.90;;;;;;5026909;28;20030;-61
2020/12/25 06:27:04;;;;;;;7.75;1.88;;;1.20;99.90;;;;;;5030452;28;20033;-61
2020/12/25 06:29:30;;;;;;;13.23;2.30;;;1.10;99.90;;;;;;5024515;28;20494;-61
2020/12/25 06:31:57;;;;;;;10.70;2.25;;;1.10;99.90;;;;;;5031458;28;20033;-60
2020/12/25 06:34:38;;;;;;;8.02;1.90;;;1.10;99.90;;;;;;5020677;28;20041;-62
2020/12/25 06:37:07;;;;;;;6.90;2.20;;;1.10;99.90;;;;;;5028236;28;20121;-61
2020/12/25 06:39:33;;;;;;;6.95;2.00;;;1.10;99.90;;;;;;5034521;28;20041;-61
2020/12/25 06:41:59;;;;;;;14.55;2.33;;;1.00;99.90;;;;;;5031627;28;20079;-62
2020/12/25 06:44:29;;;;;;;8.63;2.17;;;1.00;99.90;;;;;;5039568;28;20036;-61
2020/12/25 06:47:01;;;;;;;5.07;1.98;;;1.10;99.90;;;;;;5030505;28;20033;-61
2020/12/25 06:49:34;;;;;;;9.50;2.05;;;1.00;99.90;;;;;;5040672;28;20033;-61
2020/12/25 06:52:00;;;;;;;13.35;2.58;;;1.00;99.90;;;;;;5020885;28;20512;-61
2020/12/25 06:54:26;;;;;;;14.77;3.25;;;0.90;99.90;;;;;;5033554;28;20041;-63
2020/12/25 06:56:53;;;;;;;10.10;2.30;;;0.90;99.90;;;;;;5030769;28;20034;-61
2020/12/25 06:59:21;;;;;;;11.35;3.67;;;0.90;99.90;;;;;;5036531;28;20021;-60
2020/12/25 07:01:48;;;;;;;11.23;3.55;;;1.00;99.90;;;;;;5026085;28;20029;-62
2020/12/25 07:04:29;;;;;;;9.85;2.83;;;1.00;99.90;;;;;;5023667;28;20554;-61
2020/12/25 07:07:06;;;;;;;8.48;3.65;;;1.10;99.90;;;;;;5034771;28;20047;-62
2020/12/25 07:09:39;;;;;;;13.88;5.60;;;1.00;99.90;;;;;;5026504;28;20021;-61
2020/12/25 07:12:13;;;;;;;19.42;4.28;;;0.90;99.90;;;;;;5036979;28;20035;-61
2020/12/25 07:14:38;;;;;;;17.00;5.97;;;0.90;99.90;;;;;;5037907;28;20010;-61
2020/12/25 07:17:04;;;;;;;16.02;6.00;;;0.80;99.90;;;;;;5030683;28;20028;-61
2020/12/25 07:19:29;;;;;;;26.90;6.38;;;0.80;99.90;;;;;;5039522;28;20105;-61
2020/12/25 07:21:56;;;;;;;24.05;6.95;;;0.80;99.90;;;;;;5019412;28;20049;-61
2020/12/25 07:24:22;;;;;;;10.70;5.80;;;0.90;99.90;;;;;;4988398;28;20035;-61
2020/12/25 07:26:52;;;;;;;28.02;6.03;;;1.00;99.90;;;;;;5035080;28;20049;-61
2020/12/25 07:29:19;;;;;;;18.08;6.32;;;1.00;99.90;;;;;;5028824;28;20021;-56
2020/12/25 07:31:53;;;;;;;12.95;5.50;;;1.00;99.90;;;;;;5022048;28;20025;-59
2020/12/25 07:34:20;;;;;;;20.63;4.95;;;1.00;99.90;;;;;;5017311;28;20052;-61
2020/12/25 07:36:47;;;;;;;20.55;5.88;;;1.10;99.90;;;;;;5022795;28;20479;-58
2020/12/25 07:39:13;;;;;;;9.55;4.90;;;1.00;99.90;;;;;;5027867;28;20058;-59
2020/12/25 07:41:39;;;;;;;21.77;5.15;;;1.00;99.90;;;;;;5025848;28;20021;-60
2020/12/25 07:44:04;;;;;;;17.25;4.95;;;0.90;99.90;;;;;;5035867;28;20048;-59
2020/12/25 07:46:31;;;;;;;13.60;4.68;;;0.90;99.90;;;;;;5027650;28;20108;-60
2020/12/25 07:49:00;;;;;;;17.60;4.95;;;0.80;99.90;;;;;;5031849;28;20068;-59
2020/12/25 07:51:26;;;;;;;18.50;6.18;;;0.80;99.90;;;;;;5019985;28;20124;-60
2020/12/25 07:53:54;;;;;;;15.65;5.15;;;0.80;99.90;;;;;;5023871;28;20752;-60
2020/12/25 07:56:22;;;;;;;14.25;5.15;;;0.80;99.90;;;;;;5033955;28;20021;-61
2020/12/25 07:58:49;;;;;;;23.42;5.82;;;0.80;99.90;;;;;;5027953;28;20029;-61
2020/12/25 08:01:17;;;;;;;15.73;5.53;;;0.80;99.90;;;;;;5035603;28;20024;-60
2020/12/25 08:03:43;;;;;;;16.02;5.25;;;0.80;99.90;;;;;;5033060;28;20727;-61
2020/12/25 08:06:12;;;;;;;20.10;6.07;;;0.90;99.90;;;;;;5026786;28;20029;-61
2020/12/25 08:08:38;;;;;;;16.30;6.55;;;0.90;99.90;;;;;;5028938;28;20036;-61
2020/12/25 08:11:04;;;;;;;21.65;5.95;;;1.00;99.90;;;;;;5034469;28;20030;-61
2020/12/25 08:13:34;;;;;;;18.38;5.47;;;1.10;99.90;;;;;;5032744;28;20041;-61
2020/12/25 08:16:00;;;;;;;20.88;7.50;;;1.20;99.90;;;;;;5025583;28;20052;-60
2020/12/25 08:18:27;;;;;;;25.08;10.60;;;1.40;99.90;;;;;;5026475;28;20475;-60
2020/12/25 08:20:54;;;;;;;22.17;11.20;;;1.70;99.90;;;;;;5020015;28;20049;-61
2020/12/25 08:23:20;;;;;;;33.92;11.48;;;1.90;99.90;;;;;;5017283;28;20414;-60
2020/12/25 08:25:55;;;;;;;24.65;12.38;;;2.00;99.90;;;;;;5033960;28;20082;-61
2020/12/25 08:28:22;;;;;;;24.13;13.07;;;2.00;99.90;;;;;;5032832;28;20033;-60
2020/12/25 08:30:48;;;;;;;29.45;13.43;;;2.00;99.90;;;;;;5020016;28;21782;-60
2020/12/25 08:33:27;;;;;;;28.98;13.32;;;2.00;99.90;;;;;;5022346;28;20028;-61
2020/12/25 08:35:53;;;;;;;33.97;13.55;;;2.00;99.90;;;;;;5011296;28;20070;-61
2020/12/25 08:38:19;;;;;;;31.73;12.35;;;2.00;99.90;;;;;;5027727;28;20075;-61
2020/12/25 08:40:47;;;;;;;27.40;11.15;;;2.00;99.90;;;;;;5025990;28;20541;-59
2020/12/25 08:43:17;;;;;;;25.00;11.23;;;2.10;99.90;;;;;;5030259;28;20025;-61
2020/12/25 08:45:58;;;;;;;32.03;12.18;;;2.10;99.90;;;;;;5031430;28;20404;-61
2020/12/25 08:48:23;;;;;;;30.65;12.05;;;2.10;99.90;;;;;;5030461;28;20037;-61
2020/12/25 08:50:50;;;;;;;33.10;12.13;;;2.20;99.90;;;;;;5027725;28;20029;-61
2020/12/25 08:53:21;;;;;;;31.17;11.45;;;2.20;99.90;;;;;;5019794;28;20124;-61
2020/12/25 08:55:50;;;;;;;26.25;12.43;;;2.20;99.90;;;;;;5032383;28;20133;-60
2020/12/25 08:58:23;;;;;;;34.85;13.43;;;2.20;99.90;;;;;;5029877;28;20021;-60
2020/12/25 09:01:03;;;;;;;30.42;12.80;;;2.20;99.90;;;;;;5028405;28;20721;-62
2020/12/25 09:03:42;;;;;;;30.55;13.32;;;2.20;99.90;;;;;;5026397;28;20030;-61
2020/12/25 09:06:09;;;;;;;34.75;13.50;;;2.30;99.90;;;;;;5032612;28;20025;-60
2020/12/25 09:08:36;;;;;;;29.98;13.15;;;2.20;99.90;;;;;;5029195;28;20021;-61
2020/12/25 09:11:06;;;;;;;28.02;13.35;;;2.40;99.90;;;;;;5021419;28;20025;-60
2020/12/25 09:13:31;;;;;;;28.70;13.13;;;2.30;99.90;;;;;;5039846;28;20401;-61
2020/12/25 09:15:57;;;;;;;30.08;16.33;;;2.40;99.90;;;;;;5024609;28;20026;-61
2020/12/25 09:18:22;;;;;;;36.40;17.67;;;2.40;99.90;;;;;;5024826;28;20029;-61
2020/12/25 09:20:48;;;;;;;45.78;15.65;;;2.30;99.90;;;;;;5014255;28;20026;-60
2020/12/25 09:23:13;;;;;;;29.05;15.35;;;2.40;99.90;;;;;;5017787;28;20107;-60
2020/12/25 09:25:39;;;;;;;26.92;14.70;;;2.40;99.90;;;;;;5022202;28;20091;-60
2020/12/25 09:28:04;;;;;;;22.75;11.50;;;2.50;99.90;;;;;;5027311;28;20085;-60
2020/12/25 09:30:30;;;;;;;19.60;11.15;;;2.60;99.90;;;;;;5025156;28;20034;-61
2020/12/25 09:32:56;;;;;;;23.40;9.98;;;2.70;99.90;;;;;;5022423;28;20391;-61
2020/12/25 09:35:21;;;;;;;25.60;9.90;;;2.70;99.90;;;;;;5020985;28;20053;-61
2020/12/25 09:37:47;;;;;;;20.80;9.20;;;2.80;99.90;;;;;;5022115;28;20030;-61
2020/12/25 09:40:12;;;;;;;18.98;9.20;;;2.90;99.90;;;;;;5023689;28;20078;-59
2020/12/25 09:42:38;;;;;;;20.15;9.35;;;2.90;99.90;;;;;;5018022;28;20036;-60
2020/12/25 09:45:04;;;;;;;18.90;9.75;;;2.90;99.90;;;;;;5027481;28;20024;-60
2020/12/25 09:47:29;;;;;;;18.75;9.32;;;2.90;99.90;;;;;;5018492;28;20483;-59
2020/12/25 09:49:55;;;;;;;29.83;11.63;;;3.00;99.90;;;;;;5026170;28;20018;-60
2020/12/25 09:52:20;;;;;;;15.48;8.75;;;3.00;99.90;;;;;;5022706;28;20029;-60
2020/12/25 09:54:46;;;;;;;23.00;8.68;;;3.10;99.90;;;;;;5019109;28;20071;-61
2020/12/25 09:57:12;;;;;;;20.85;7.72;;;3.20;99.90;;;;;;5026716;28;20107;-61
2020/12/25 09:59:38;;;;;;;18.08;8.63;;;3.40;99.90;;;;;;5019209;28;20061;-61
2020/12/25 10:02:03;;;;;;;14.75;7.18;;;3.40;99.90;;;;;;5023712;28;20029;-61
2020/12/25 10:04:29;;;;;;;18.48;5.70;;;3.40;99.90;;;;;;5027813;28;20037;-60
2020/12/25 10:06:57;;;;;;;20.10;7.07;;;3.30;99.90;;;;;;5027089;28;20038;-61
2020/12/25 10:09:23;;;;;;;19.73;6.95;;;3.40;99.90;;;;;;5025611;28;20087;-60
2020/12/25 10:11:53;;;;;;;14.30;6.05;;;3.30;99.90;;;;;;5037652;28;20025;-61
2020/12/25 10:14:18;;;;;;;17.83;7.90;;;3.20;99.90;;;;;;5024631;28;20025;-60
2020/12/25 10:16:44;;;;;;;19.75;7.53;;;3.40;99.90;;;;;;5028711;28;20032;-60
2020/12/25 10:19:10;;;;;;;17.70;9.18;;;3.40;99.90;;;;;;5040136;28;20061;-61
2020/12/25 10:21:35;;;;;;;19.08;10.70;;;3.50;99.90;;;;;;5021407;28;20029;-60
2020/12/25 10:24:01;;;;;;;22.70;11.77;;;3.60;99.90;;;;;;5029037;28;20356;-61
2020/12/25 10:26:26;;;;;;;19.92;11.80;;;3.60;99.90;;;;;;5037801;28;20706;-60
2020/12/25 10:28:52;;;;;;;27.42;10.93;;;3.70;99.90;;;;;;5033223;28;20028;-61
2020/12/25 10:31:18;;;;;;;28.65;10.73;;;3.80;99.90;;;;;;5036280;28;20009;-60
2020/12/25 10:33:43;;;;;;;22.50;11.35;;;3.80;99.90;;;;;;5036928;28;20048;-61
2020/12/25 10:36:09;;;;;;;27.73;12.70;;;3.70;99.90;;;;;;5013187;28;20036;-61
2020/12/25 10:38:35;;;;;;;29.35;13.45;;;3.60;99.90;;;;;;5023618;28;20163;-61
2020/12/25 10:41:02;;;;;;;32.10;13.55;;;3.50;99.90;;;;;;5030430;28;20047;-61
2020/12/25 10:43:28;;;;;;;43.47;15.55;;;3.60;99.90;;;;;;5023523;28;20747;-61
2020/12/25 10:45:54;;;;;;;34.10;15.48;;;3.50;99.90;;;;;;5030673;28;20022;-61
2020/12/25 10:48:19;;;;;;;31.85;16.13;;;3.60;99.90;;;;;;5036336;28;20495;-61
2020/12/25 10:50:45;;;;;;;34.80;14.65;;;3.60;99.90;;;;;;5033290;28;20030;-62
2020/12/25 10:53:10;;;;;;;33.83;17.38;;;3.70;99.90;;;;;;5022502;28;20031;-62
2020/12/25 10:55:37;;;;;;;40.28;17.27;;;3.90;99.90;;;;;;5025844;28;20383;-62
2020/12/25 10:58:03;;;;;;;50.97;20.42;;;4.10;99.90;;;;;;5026034;28;20078;-61
2020/12/25 11:00:28;;;;;;;35.25;16.75;;;4.20;99.90;;;;;;5019244;28;20037;-61
2020/12/25 11:02:54;;;;;;;38.03;15.57;;;4.40;99.90;;;;;;4986644;28;20014;-61
2020/12/25 11:05:19;;;;;;;35.72;16.23;;;4.30;99.90;;;;;;5021811;28;20108;-60
2020/12/25 11:07:45;;;;;;;42.03;19.35;;;4.40;99.90;;;;;;5017218;28;20029;-60
2020/12/25 11:10:10;;;;;;;40.75;19.05;;;4.40;99.90;;;;;;5024487;28;20486;-62
2020/12/25 11:12:36;;;;;;;34.13;16.52;;;4.50;99.90;;;;;;5027539;28;20037;-60
2020/12/25 11:15:02;;;;;;;34.58;16.60;;;4.60;99.90;;;;;;5043772;28;20082;-62
2020/12/25 11:17:27;;;;;;;32.30;15.93;;;4.60;99.90;;;;;;5033694;28;20483;-61
2020/12/25 11:19:55;;;;;;;32.50;15.40;;;4.50;99.90;;;;;;5023734;28;20030;-62
2020/12/25 11:22:22;;;;;;;31.27;16.20;;;4.30;99.90;;;;;;5020255;28;20116;-62
2020/12/25 11:24:47;;;;;;;30.30;15.30;;;4.30;99.90;;;;;;5028384;28;20030;-60
2020/12/25 11:27:13;;;;;;;30.17;14.57;;;4.30;99.90;;;;;;5025012;28;20108;-61
2020/12/25 11:29:38;;;;;;;33.92;16.58;;;4.40;99.90;;;;;;5034791;28;20032;-62
2020/12/25 11:32:04;;;;;;;43.92;19.77;;;4.40;99.90;;;;;;5020743;28;20040;-60
2020/12/25 11:34:29;;;;;;;45.85;22.85;;;4.40;99.90;;;;;;5019567;28;20076;-62
2020/12/25 11:36:55;;;;;;;43.33;17.85;;;4.40;99.90;;;;;;5019579;28;20033;-61
2020/12/25 11:39:20;;;;;;;44.05;18.40;;;4.30;99.90;;;;;;5029302;28;20017;-62
2020/12/25 11:41:46;;;;;;;32.30;19.15;;;4.20;99.90;;;;;;5021491;28;20380;-62
2020/12/25 11:44:11;;;;;;;41.88;17.50;;;4.20;99.90;;;;;;5019906;28;20490;-62
2020/12/25 11:46:37;;;;;;;34.22;18.42;;;4.10;99.90;;;;;;5019924;28;20037;-62
2020/12/25 11:49:07;;;;;;;36.20;18.38;;;4.10;99.90;;;;;;5023890;28;20025;-62
2020/12/25 11:51:33;;;;;;;32.47;17.92;;;4.10;99.90;;;;;;5021994;28;20037;-60
2020/12/25 11:53:59;;;;;;;34.55;17.55;;;4.00;99.90;;;;;;5026185;28;20212;-62
2020/12/25 11:56:26;;;;;;;33.30;15.75;;;4.10;99.90;;;;;;5021329;28;20132;-61
2020/12/25 11:58:52;;;;;;;34.08;16.73;;;4.30;99.90;;;;;;5021886;28;20021;-61
2020/12/25 12:01:17;;;;;;;32.95;15.52;;;4.40;99.90;;;;;;5020308;28;20029;-61
2020/12/25 12:03:43;;;;;;;37.53;16.33;;;4.40;99.90;;;;;;5025303;28;20021;-62
2020/12/25 12:06:10;;;;;;;33.17;15.82;;;4.50;99.90;;;;;;5018520;28;20443;-62
2020/12/25 12:08:37;;;;;;;29.15;15.32;;;4.60;99.90;;;;;;5019794;28;20574;-60
2020/12/25 12:11:02;;;;;;;35.72;18.15;;;4.60;99.90;;;;;;5018948;28;20052;-61
2020/12/25 12:13:28;;;;;;;25.15;14.13;;;4.50;99.90;;;;;;5016782;28;20061;-61
2020/12/25 12:15:53;;;;;;;28.15;13.90;;;4.30;99.90;;;;;;5020513;28;20671;-62
2020/12/25 12:18:19;;;;;;;23.80;12.32;;;4.30;99.90;;;;;;5022425;28;20022;-62
2020/12/25 12:20:44;;;;;;;28.13;13.25;;;4.30;99.90;;;;;;5022544;28;20026;-62
2020/12/25 12:23:10;;;;;;;27.33;12.20;;;4.20;99.90;;;;;;5017654;28;20061;-62
2020/12/25 12:25:35;;;;;;;20.45;11.43;;;4.10;99.90;;;;;;5020334;28;20042;-61
2020/12/25 12:28:01;;;;;;;27.98;13.00;;;4.10;99.90;;;;;;5023354;28;20025;-62
2020/12/25 12:30:27;;;;;;;32.20;14.52;;;4.20;99.90;;;;;;5018090;28;20041;-60
2020/12/25 12:32:52;;;;;;;24.83;13.98;;;4.30;99.90;;;;;;5022495;28;20041;-62
2020/12/25 12:35:18;;;;;;;25.38;13.80;;;4.40;99.90;;;;;;5028824;28;20483;-60
2020/12/25 12:37:45;;;;;;;28.60;13.00;;;4.40;99.90;;;;;;5035370;28;20021;-60
2020/12/25 12:40:14;;;;;;;19.83;9.88;;;4.40;99.90;;;;;;5032395;28;20022;-62
2020/12/25 12:42:40;;;;;;;29.38;11.73;;;4.40;99.90;;;;;;4942082;28;20352;-61
2020/12/25 12:45:06;;;;;;;27.83;12.73;;;4.40;99.90;;;;;;5025255;28;20025;-62